createdAt,value
2023-09-24T00:00:55.257Z,6.64
2023-09-24T00:03:21.938Z,6.79
2023-09-24T00:05:48.616Z,6.51
2023-09-24T00:08:15.221Z,6.89
2023-09-24T00:10:41.838Z,6.52
2023-09-24T00:13:08.536Z,6.25
2023-09-24T00:15:35.170Z,5.75
2023-09-24T00:18:01.859Z,6.17
2023-09-24T00:20:28.821Z,6.15
2023-09-24T00:22:55.523Z,6.36
2023-09-24T00:25:22.650Z,5.98
2023-09-24T00:27:49.224Z,5.86
2023-09-24T00:30:15.891Z,6.42
2023-09-24T00:32:42.626Z,6.54
2023-09-24T00:35:09.603Z,6.29
2023-09-24T00:37:36.427Z,6.50
2023-09-24T00:40:07.588Z,6.80
2023-09-24T00:42:34.246Z,6.98
2023-09-24T00:45:00.980Z,6.55
2023-09-24T00:47:28.342Z,6.04
2023-09-24T00:49:55.687Z,5.89
2023-09-24T00:52:26.070Z,6.65
2023-09-24T00:54:53.499Z,6.47
2023-09-24T00:57:21.015Z,6.25
2023-09-24T00:59:47.791Z,6.62
2023-09-24T01:02:15.144Z,6.88
2023-09-24T01:04:42.879Z,6.87
2023-09-24T01:07:10.038Z,6.46
2023-09-24T01:09:36.695Z,6.65
2023-09-24T01:12:04.463Z,6.15
2023-09-24T01:14:31.098Z,6.25
2023-09-24T01:16:57.710Z,6.37
2023-09-24T01:19:24.729Z,6.39
2023-09-24T01:21:51.555Z,5.79
2023-09-24T01:24:18.424Z,6.21
2023-09-24T01:26:45.327Z,6.26
2023-09-24T01:29:12.556Z,6.13
2023-09-24T01:31:39.423Z,6.13
2023-09-24T01:34:06.625Z,5.96
2023-09-24T01:36:34.314Z,6.51
2023-09-24T01:39:00.941Z,6.22
2023-09-24T01:41:31.501Z,5.98
2023-09-24T01:43:58.847Z,5.68
2023-09-24T01:46:25.457Z,5.62
2023-09-24T01:48:55.379Z,6.33
2023-09-24T01:51:22.226Z,5.88
2023-09-24T01:53:49.514Z,6.15
2023-09-24T01:56:19.557Z,6.41
2023-09-24T01:58:46.312Z,6.50
2023-09-24T02:01:13.040Z,6.56
2023-09-24T02:03:40.551Z,6.79
2023-09-24T02:06:08.504Z,6.66
2023-09-24T02:08:35.464Z,6.51
2023-09-24T02:11:02.392Z,6.77
2023-09-24T02:13:29.091Z,7.00
2023-09-24T02:15:56.139Z,7.45
2023-09-24T02:18:24.124Z,8.45
2023-09-24T02:20:53.721Z,7.90
2023-09-24T02:23:23.579Z,7.49
2023-09-24T02:25:50.467Z,7.36
2023-09-24T02:28:19.412Z,7.62
2023-09-24T02:30:47.176Z,7.65
2023-09-24T02:33:14.029Z,8.16
2023-09-24T02:35:41.234Z,8.45
2023-09-24T02:38:10.163Z,8.41
2023-09-24T02:40:37.053Z,8.18
2023-09-24T02:43:04.664Z,8.04
2023-09-24T02:45:31.477Z,8.12
2023-09-24T02:47:58.245Z,7.89
2023-09-24T02:50:26.208Z,7.76
2023-09-24T02:52:57.414Z,8.02
2023-09-24T02:55:25.361Z,8.11
2023-09-24T02:57:52.053Z,7.95
2023-09-24T03:00:20.931Z,8.10
2023-09-24T03:02:48.929Z,8.39
2023-09-24T03:05:22.041Z,8.20
2023-09-24T03:07:52.645Z,8.47
2023-09-24T03:10:21.553Z,9.52
2023-09-24T03:12:49.254Z,8.54
2023-09-24T03:15:16.220Z,8.47
2023-09-24T03:17:43.960Z,8.85
2023-09-24T03:20:30.840Z,9.06
2023-09-24T03:23:02.341Z,8.50
2023-09-24T03:25:29.305Z,9.20
2023-09-24T03:27:58.318Z,8.62
2023-09-24T03:30:26.784Z,9.05
2023-09-24T03:32:56.288Z,9.00
2023-09-24T03:35:27.531Z,9.04
2023-09-24T03:37:55.375Z,9.30
2023-09-24T03:40:27.741Z,10.04
2023-09-24T03:42:54.587Z,9.45
2023-09-24T03:45:23.796Z,10.11
2023-09-24T03:47:50.689Z,9.93
2023-09-24T03:50:18.675Z,9.37
2023-09-24T03:52:46.791Z,10.08
2023-09-24T03:55:13.946Z,10.02
2023-09-24T03:57:40.619Z,9.56
2023-09-24T04:00:12.146Z,9.94
2023-09-24T04:02:41.667Z,10.07
2023-09-24T04:05:10.940Z,9.62
2023-09-24T04:07:40.559Z,9.47
2023-09-24T04:10:08.060Z,10.35
2023-09-24T04:12:35.749Z,9.89
2023-09-24T04:15:03.483Z,10.14
2023-09-24T04:17:30.354Z,10.26
2023-09-24T04:19:58.120Z,10.13
2023-09-24T04:22:25.212Z,10.46
2023-09-24T04:24:52.314Z,10.64
2023-09-24T04:27:18.873Z,9.95
2023-09-24T04:29:45.476Z,10.08
2023-09-24T04:32:12.868Z,10.12
2023-09-24T04:34:39.618Z,9.66
2023-09-24T04:37:06.302Z,10.00
2023-09-24T04:39:33.674Z,10.33
2023-09-24T04:42:00.315Z,10.02
2023-09-24T04:44:26.937Z,10.11
2023-09-24T04:46:55.718Z,10.03
2023-09-24T04:49:22.397Z,10.38
2023-09-24T04:51:50.592Z,10.73
2023-09-24T04:54:17.477Z,10.75
2023-09-24T04:56:44.116Z,10.28
2023-09-24T04:59:13.375Z,10.59
2023-09-24T05:01:40.017Z,10.80
2023-09-24T05:04:06.806Z,10.17
2023-09-24T05:06:33.618Z,10.09
2023-09-24T05:09:00.279Z,10.67
2023-09-24T05:11:27.148Z,10.73
2023-09-24T05:13:53.927Z,10.64
2023-09-24T05:16:22.856Z,10.24
2023-09-24T05:18:49.725Z,10.42
2023-09-24T05:21:16.998Z,10.40
2023-09-24T05:23:43.612Z,10.41
2023-09-24T05:26:14.631Z,10.27
2023-09-24T05:28:42.729Z,10.17
2023-09-24T05:31:09.441Z,10.42
2023-09-24T05:33:36.327Z,10.56
2023-09-24T05:36:04.673Z,9.90
2023-09-24T05:38:31.749Z,10.39
2023-09-24T05:40:58.643Z,9.95
2023-09-24T05:43:25.240Z,9.66
2023-09-24T05:45:51.904Z,10.18
2023-09-24T05:48:20.329Z,10.15
2023-09-24T05:50:47.477Z,9.16
2023-09-24T05:53:15.078Z,9.46
2023-09-24T05:55:53.197Z,9.59
2023-09-24T05:58:21.785Z,9.54
2023-09-24T06:00:48.477Z,9.80
2023-09-24T06:03:15.489Z,9.75
2023-09-24T06:05:42.482Z,9.71
2023-09-24T06:08:09.123Z,10.00
2023-09-24T06:10:36.215Z,10.29
2023-09-24T06:13:03.217Z,9.50
2023-09-24T06:15:29.951Z,9.49
2023-09-24T06:17:57.146Z,9.73
2023-09-24T06:20:25.088Z,9.99
2023-09-24T06:22:54.576Z,9.82
2023-09-24T06:25:21.263Z,10.18
2023-09-24T06:27:48.113Z,10.38
2023-09-24T06:30:14.812Z,9.94
2023-09-24T06:32:41.618Z,9.85
2023-09-24T06:35:08.570Z,10.51
2023-09-24T06:37:35.158Z,9.96
2023-09-24T06:40:01.770Z,10.17
2023-09-24T06:42:28.381Z,10.09
2023-09-24T06:44:55.063Z,9.27
2023-09-24T06:47:21.740Z,9.41
2023-09-24T06:49:48.969Z,9.04
2023-09-24T06:52:15.578Z,8.89
2023-09-24T06:54:42.329Z,8.96
2023-09-24T06:57:09.013Z,8.64
2023-09-24T06:59:35.955Z,8.71
2023-09-24T07:02:02.548Z,8.49
2023-09-24T07:04:29.278Z,8.29
2023-09-24T07:06:55.897Z,8.94
2023-09-24T07:09:22.684Z,9.01
2023-09-24T07:11:49.348Z,8.96
2023-09-24T07:14:16.598Z,9.18
2023-09-24T07:16:43.590Z,8.89
2023-09-24T07:19:10.990Z,8.24
2023-09-24T07:21:37.764Z,9.06
2023-09-24T07:24:05.424Z,9.78
2023-09-24T07:26:33.015Z,9.75
2023-09-24T07:29:01.496Z,10.11
2023-09-24T07:31:30.511Z,8.57
2023-09-24T07:33:59.498Z,8.99
2023-09-24T07:38:55.902Z,8.48
2023-09-24T07:41:23.030Z,8.35
2023-09-24T07:43:50.831Z,8.43
2023-09-24T07:46:18.152Z,8.21
2023-09-24T07:48:45.611Z,8.26
2023-09-24T07:51:12.544Z,7.70
2023-09-24T07:53:39.568Z,8.06
2023-09-24T07:56:12.985Z,8.43
2023-09-24T07:58:41.971Z,8.15
2023-09-24T08:01:09.992Z,7.49
2023-09-24T08:03:37.379Z,7.70
2023-09-24T08:06:04.168Z,8.58
2023-09-24T08:08:47.957Z,8.10
2023-09-24T08:11:18.211Z,7.96
2023-09-24T08:13:44.814Z,7.73
2023-09-24T08:16:11.532Z,7.21
2023-09-24T08:18:38.374Z,7.67
2023-09-24T08:21:05.148Z,6.89
2023-09-24T08:23:32.713Z,6.88
2023-09-24T08:26:00.369Z,7.24
2023-09-24T08:28:27.011Z,7.15
2023-09-24T08:30:54.151Z,7.62
2023-09-24T08:33:20.906Z,8.59
2023-09-24T08:35:47.591Z,8.18
2023-09-24T08:38:14.876Z,7.19
2023-09-24T08:40:41.579Z,7.38
2023-09-24T08:43:15.673Z,7.29
2023-09-24T08:45:42.553Z,6.84
2023-09-24T08:48:10.442Z,6.62
2023-09-24T08:50:43.020Z,6.05
2023-09-24T08:53:14.341Z,5.45
2023-09-24T08:55:45.192Z,6.03
2023-09-24T08:58:12.288Z,6.17
2023-09-24T09:00:40.332Z,5.92
2023-09-24T09:03:07.179Z,5.60
2023-09-24T09:05:38.489Z,5.75
2023-09-24T09:08:06.096Z,5.21
2023-09-24T09:10:34.406Z,5.12
2023-09-24T09:13:12.227Z,5.40
2023-09-24T09:15:40.140Z,4.85
2023-09-24T09:18:08.096Z,4.68
2023-09-24T09:20:42.369Z,4.59
2023-09-24T09:23:13.880Z,4.51
2023-09-24T09:25:55.875Z,4.11
2023-09-24T09:28:26.394Z,3.59
2023-09-24T09:31:03.975Z,3.57
2023-09-24T09:33:31.603Z,3.62
2023-09-24T09:35:59.238Z,3.52
2023-09-24T09:38:27.919Z,3.27
2023-09-24T09:40:56.286Z,3.02
2023-09-24T09:43:24.856Z,2.95
2023-09-24T09:45:52.643Z,2.57
2023-09-24T09:48:27.630Z,2.40
2023-09-24T09:50:58.618Z,2.83
2023-09-24T09:53:29.976Z,2.64
2023-09-24T09:55:57.579Z,2.34
2023-09-24T09:58:26.242Z,2.42
2023-09-24T10:00:54.901Z,2.34
2023-09-24T10:03:24.173Z,2.24
2023-09-24T10:05:51.323Z,2.42
2023-09-24T10:08:36.849Z,2.33
2023-09-24T10:11:05.034Z,2.19
2023-09-24T10:13:42.126Z,2.21
2023-09-24T10:16:26.779Z,2.15
2023-09-24T10:18:56.273Z,2.02
2023-09-24T10:21:31.743Z,1.88
2023-09-24T10:23:59.367Z,2.01
2023-09-24T10:26:44.990Z,1.93
2023-09-24T10:29:11.600Z,1.99
2023-09-24T10:31:57.243Z,1.84
2023-09-24T10:34:23.910Z,1.71
2023-09-24T10:37:09.916Z,1.53
2023-09-24T10:39:56.424Z,1.71
2023-09-24T10:42:23.029Z,1.57
2023-09-24T10:45:10.589Z,1.72
2023-09-24T10:47:45.001Z,1.44
2023-09-24T10:50:15.911Z,1.61
2023-09-24T10:53:00.241Z,1.46
2023-09-24T10:55:30.434Z,1.42
2023-09-24T10:58:01.624Z,1.59
2023-09-24T11:00:29.656Z,1.50
2023-09-24T11:03:00.945Z,1.49
2023-09-24T11:05:28.929Z,1.52
2023-09-24T11:07:56.720Z,1.51
2023-09-24T11:10:24.611Z,1.55
2023-09-24T11:12:55.109Z,1.48
2023-09-24T11:15:23.401Z,1.46
2023-09-24T11:17:51.542Z,1.48
2023-09-24T11:20:21.914Z,1.68
2023-09-24T11:23:02.978Z,1.58
2023-09-24T11:25:30.506Z,1.41
2023-09-24T11:27:59.081Z,1.44
2023-09-24T11:30:30.493Z,1.38
2023-09-24T11:32:57.207Z,1.41
2023-09-24T11:35:27.202Z,1.53
2023-09-24T11:37:55.707Z,1.70
2023-09-24T11:40:31.318Z,1.57
2023-09-24T11:42:59.716Z,1.57
2023-09-24T11:45:44.461Z,1.47
2023-09-24T11:48:12.866Z,1.60
2023-09-24T11:50:41.159Z,1.69
2023-09-24T11:53:08.033Z,1.53
2023-09-24T11:55:35.284Z,1.42
2023-09-24T11:58:03.357Z,1.52
2023-09-24T12:00:29.963Z,1.65
2023-09-24T12:02:56.802Z,1.67
2023-09-24T12:05:32.894Z,1.47
2023-09-24T12:08:01.371Z,1.73
2023-09-24T12:10:28.157Z,1.64
2023-09-24T12:12:54.874Z,1.41
2023-09-24T12:15:21.731Z,1.47
2023-09-24T12:17:48.562Z,1.29
2023-09-24T12:20:15.617Z,1.33
2023-09-24T12:22:43.659Z,1.43
2023-09-24T12:25:11.517Z,1.68
2023-09-24T12:27:40.009Z,1.58
2023-09-24T12:30:09.249Z,1.54
2023-09-24T12:32:36.186Z,1.46
2023-09-24T12:35:08.362Z,1.48
2023-09-24T12:37:36.345Z,1.47
2023-09-24T12:40:08.572Z,1.52
2023-09-24T12:42:36.508Z,1.42
2023-09-24T12:45:04.941Z,1.59
2023-09-24T12:47:34.891Z,1.52
2023-09-24T12:50:06.758Z,1.47
2023-09-24T12:52:35.185Z,1.39
2023-09-24T12:55:02.536Z,1.53
2023-09-24T12:57:29.334Z,1.46
2023-09-24T12:59:56.553Z,1.55
2023-09-24T13:02:24.095Z,1.50
2023-09-24T13:04:50.838Z,1.56
2023-09-24T13:07:17.473Z,1.66
2023-09-24T13:09:44.199Z,1.89
2023-09-24T13:12:12.336Z,1.72
2023-09-24T13:14:39.004Z,1.56
2023-09-24T13:17:05.716Z,1.70
2023-09-24T13:19:32.363Z,1.67
2023-09-24T13:21:58.982Z,1.73
2023-09-24T13:24:25.543Z,1.87
2023-09-24T13:26:52.190Z,1.76
2023-09-24T13:29:19.027Z,1.69
2023-09-24T13:31:50.358Z,1.57
2023-09-24T13:34:17.281Z,1.48
2023-09-24T13:36:43.866Z,1.53
2023-09-24T13:39:13.556Z,1.71
2023-09-24T13:41:40.364Z,1.64
2023-09-24T13:44:06.994Z,1.70
2023-09-24T13:46:34.634Z,1.55
2023-09-24T13:49:05.243Z,1.82
2023-09-24T13:51:36.611Z,1.68
2023-09-24T13:54:04.137Z,1.68
2023-09-24T13:56:31.113Z,1.55
2023-09-24T13:59:00.500Z,1.61
2023-09-24T14:01:27.207Z,1.65
2023-09-24T14:03:54.445Z,1.77
2023-09-24T14:06:21.698Z,1.71
2023-09-24T14:09:07.202Z,1.48
2023-09-24T14:11:52.565Z,1.56
2023-09-24T14:14:19.166Z,1.88
2023-09-24T14:16:48.714Z,1.91
2023-09-24T14:19:16.418Z,1.50
2023-09-24T14:21:43.196Z,1.68
2023-09-24T14:24:10.025Z,1.61
2023-09-24T14:26:36.760Z,1.52
2023-09-24T14:29:03.900Z,1.40
2023-09-24T14:31:30.710Z,1.57
2023-09-24T14:33:57.473Z,1.39
2023-09-24T14:36:24.247Z,1.54
2023-09-24T14:38:51.338Z,2.11
2023-09-24T14:41:17.930Z,3.03
2023-09-24T14:43:44.585Z,3.31
2023-09-24T14:46:11.575Z,2.72
2023-09-24T14:48:38.818Z,1.97
2023-09-24T14:51:08.440Z,1.99
2023-09-24T14:53:35.377Z,2.01
2023-09-24T14:56:02.571Z,2.12
2023-09-24T14:58:29.935Z,1.77
2023-09-24T15:01:03.749Z,1.48
2023-09-24T15:03:30.870Z,1.73
2023-09-24T15:05:58.681Z,1.65
2023-09-24T15:08:26.309Z,1.60
2023-09-24T15:10:55.632Z,1.71
2023-09-24T15:13:23.498Z,1.43
2023-09-24T15:15:50.925Z,1.51
2023-09-24T15:18:17.723Z,1.46
2023-09-24T15:20:44.695Z,1.67
2023-09-24T15:23:13.461Z,1.59
2023-09-24T15:25:41.952Z,1.54
2023-09-24T15:28:08.685Z,1.61
2023-09-24T15:30:39.255Z,1.50
2023-09-24T15:33:06.027Z,1.48
2023-09-24T15:35:34.950Z,1.60
2023-09-24T15:38:02.750Z,1.39
2023-09-24T15:40:29.488Z,1.27
2023-09-24T15:42:56.090Z,1.45
2023-09-24T15:45:22.918Z,1.38
2023-09-24T15:47:49.614Z,1.58
2023-09-24T15:50:16.682Z,1.53
2023-09-24T15:52:43.933Z,1.54
2023-09-24T15:55:11.478Z,1.48
2023-09-24T15:57:39.079Z,1.38
2023-09-24T16:00:12.221Z,1.36
2023-09-24T16:02:40.548Z,1.51
2023-09-24T16:05:08.309Z,1.42
2023-09-24T16:07:35.458Z,1.43
2023-09-24T16:10:03.567Z,1.81
2023-09-24T16:12:30.669Z,2.07
2023-09-24T16:14:57.812Z,1.75
2023-09-24T16:17:25.009Z,1.68
2023-09-24T16:19:51.654Z,1.57
2023-09-24T16:22:18.450Z,1.22
2023-09-24T16:24:45.160Z,1.35
2023-09-24T16:27:11.958Z,1.31
2023-09-24T16:29:38.558Z,1.24
2023-09-24T16:32:05.184Z,1.33
2023-09-24T16:34:32.595Z,1.38
2023-09-24T16:37:01.960Z,1.35
2023-09-24T16:39:28.724Z,1.53
2023-09-24T16:41:55.408Z,1.49
2023-09-24T16:44:22.060Z,1.55
2023-09-24T16:46:49.795Z,1.40
2023-09-24T16:49:16.511Z,1.53
2023-09-24T16:51:43.305Z,1.77
2023-09-24T16:54:10.001Z,1.59
2023-09-24T16:56:36.694Z,1.78
2023-09-24T16:59:03.296Z,1.77
2023-09-24T17:01:30.076Z,2.19
2023-09-24T17:03:56.884Z,1.88
2023-09-24T17:06:24.902Z,2.12
2023-09-24T17:08:51.715Z,1.63
2023-09-24T17:11:18.390Z,1.76
2023-09-24T17:13:45.009Z,1.73
2023-09-24T17:16:13.531Z,1.60
2023-09-24T17:18:40.382Z,1.54
2023-09-24T17:21:11.263Z,1.59
2023-09-24T17:23:38.731Z,1.51
2023-09-24T17:26:08.956Z,1.62
2023-09-24T17:28:36.600Z,1.41
2023-09-24T17:31:03.898Z,1.70
2023-09-24T17:33:31.751Z,1.61
2023-09-24T17:35:58.516Z,1.64
2023-09-24T17:38:25.170Z,1.59
2023-09-24T17:40:51.802Z,1.64
2023-09-24T17:43:18.493Z,1.65
2023-09-24T17:45:58.543Z,1.54
2023-09-24T17:48:25.257Z,1.58
2023-09-24T17:50:51.972Z,1.52
2023-09-24T17:53:20.275Z,1.68
2023-09-24T17:55:54.766Z,1.64
2023-09-24T17:58:21.895Z,1.56
2023-09-24T18:00:48.698Z,1.66
2023-09-24T18:03:21.109Z,2.01
2023-09-24T18:05:49.009Z,2.14
2023-09-24T18:08:16.936Z,2.48
2023-09-24T18:10:43.650Z,2.67
2023-09-24T18:13:10.282Z,2.62
2023-09-24T18:15:36.921Z,2.90
2023-09-24T18:18:03.867Z,2.43
2023-09-24T18:20:30.636Z,2.16
2023-09-24T18:22:57.296Z,2.19
2023-09-24T18:25:23.920Z,2.35
2023-09-24T18:27:50.608Z,2.74
2023-09-24T18:30:17.304Z,2.58
2023-09-24T18:32:44.216Z,2.85
2023-09-24T18:35:10.864Z,2.45
2023-09-24T18:37:37.447Z,2.31
2023-09-24T18:40:04.876Z,2.36
2023-09-24T18:42:31.624Z,2.07
2023-09-24T18:44:58.325Z,1.97
2023-09-24T18:47:27.272Z,1.98
2023-09-24T18:49:54.139Z,1.95
2023-09-24T18:52:21.267Z,2.11
2023-09-24T18:54:48.003Z,1.93
2023-09-24T18:57:14.910Z,2.10
2023-09-24T18:59:41.908Z,2.04
2023-09-24T19:02:08.496Z,2.14
2023-09-24T19:04:35.295Z,1.98
2023-09-24T19:07:02.004Z,2.25
2023-09-24T19:09:28.695Z,2.39
2023-09-24T19:11:55.631Z,2.48
2023-09-24T19:14:22.247Z,2.67
2023-09-24T19:16:48.814Z,2.33
2023-09-24T19:19:15.366Z,2.47
2023-09-24T19:21:41.978Z,2.42
2023-09-24T19:24:08.599Z,3.05
2023-09-24T19:26:35.212Z,3.45
2023-09-24T19:29:02.242Z,2.94
2023-09-24T19:31:28.968Z,2.47
2023-09-24T19:33:57.937Z,2.96
2023-09-24T19:36:25.262Z,2.70
2023-09-24T19:38:51.926Z,2.99
2023-09-24T19:41:19.241Z,3.25
2023-09-24T19:43:46.129Z,3.20
2023-09-24T19:46:12.945Z,3.12
2023-09-24T19:48:40.324Z,3.56
2023-09-24T19:51:07.405Z,3.32
2023-09-24T19:53:36.135Z,3.35
2023-09-24T19:56:02.992Z,3.13
2023-09-24T19:58:29.670Z,2.92
2023-09-24T20:00:59.429Z,3.10
2023-09-24T20:03:26.205Z,3.56
2023-09-24T20:05:53.785Z,3.65
2023-09-24T20:08:22.184Z,3.16
2023-09-24T20:10:48.992Z,3.47
2023-09-24T20:13:15.627Z,3.80
2023-09-24T20:15:42.336Z,3.43
2023-09-24T20:18:09.381Z,3.10
2023-09-24T20:20:36.243Z,3.39
2023-09-24T20:23:02.868Z,3.06
2023-09-24T20:25:37.591Z,3.11
2023-09-24T20:28:04.327Z,2.82
2023-09-24T20:30:31.103Z,2.99
2023-09-24T20:32:57.800Z,2.85
2023-09-24T20:35:25.049Z,2.78
2023-09-24T20:37:51.701Z,2.57
2023-09-24T20:40:18.362Z,2.62
2023-09-24T20:42:45.015Z,2.65
2023-09-24T20:45:15.038Z,2.72
2023-09-24T20:47:45.439Z,2.59
2023-09-24T20:50:14.056Z,2.52
2023-09-24T20:52:40.816Z,2.54
2023-09-24T20:55:08.810Z,2.25
2023-09-24T20:57:35.454Z,2.45
2023-09-24T21:00:11.211Z,2.46
2023-09-24T21:02:38.075Z,2.51
2023-09-24T21:05:05.230Z,2.57
2023-09-24T21:07:34.096Z,2.39
2023-09-24T21:10:01.228Z,2.56
2023-09-24T21:12:28.214Z,2.56
2023-09-24T21:14:55.519Z,2.43
2023-09-24T21:17:22.632Z,2.26
2023-09-24T21:19:49.201Z,2.60
2023-09-24T21:22:15.823Z,2.38
2023-09-24T21:24:42.558Z,2.37
2023-09-24T21:27:09.222Z,2.32
2023-09-24T21:29:36.238Z,2.36
2023-09-24T21:32:02.835Z,2.25
2023-09-24T21:34:29.880Z,2.37
2023-09-24T21:36:56.543Z,2.33
2023-09-24T21:39:23.228Z,2.26
2023-09-24T21:41:49.855Z,2.30
2023-09-24T21:44:16.460Z,2.29
2023-09-24T21:46:43.450Z,2.32
2023-09-24T21:49:10.087Z,2.40
2023-09-24T21:51:36.930Z,2.17
2023-09-24T21:54:04.141Z,2.06
2023-09-24T21:56:30.741Z,2.04
2023-09-24T21:58:57.330Z,2.17
2023-09-24T22:01:24.178Z,2.15
2023-09-24T22:03:51.926Z,2.11
2023-09-24T22:06:18.741Z,2.18
2023-09-24T22:08:45.512Z,2.17
2023-09-24T22:11:12.132Z,2.18
2023-09-24T22:13:38.726Z,2.34
2023-09-24T22:16:05.469Z,2.43
2023-09-24T22:18:32.413Z,2.27
2023-09-24T22:21:01.396Z,2.42
2023-09-24T22:23:28.010Z,2.34
2023-09-24T22:25:58.201Z,2.18
2023-09-24T22:28:25.109Z,2.35
2023-09-24T22:30:52.035Z,2.36
2023-09-24T22:33:18.781Z,2.36
2023-09-24T22:35:46.027Z,2.32
2023-09-24T22:38:12.590Z,2.49
2023-09-24T22:40:39.502Z,2.41
2023-09-24T22:43:19.741Z,2.56
2023-09-24T22:45:52.679Z,2.52
2023-09-24T22:48:19.405Z,2.69
2023-09-24T22:50:51.144Z,2.56
2023-09-24T22:53:17.846Z,2.58
2023-09-24T22:55:44.482Z,2.69
2023-09-24T22:58:11.333Z,2.73
2023-09-24T23:00:37.979Z,2.72
2023-09-24T23:03:04.826Z,2.84
2023-09-24T23:05:33.989Z,2.95
2023-09-24T23:08:02.306Z,2.91
